sensor_id;sensor_type;location;lat;lon;timestamp;temperature;humidity
41435;DHT22;27177;22.262;114.192;2023-04-29T00:01:36;23.90;99.90
41435;DHT22;27177;22.262;114.192;2023-04-29T00:04:12;23.90;99.90
41435;DHT22;27177;22.262;114.192;2023-04-29T00:06:57;23.90;99.90
41435;DHT22;27177;22.262;114.192;2023-04-29T00:09:23;24.00;99.90
41435;DHT22;27177;22.262;114.192;2023-04-29T00:11:49;24.10;99.90
41435;DHT22;27177;22.262;114.192;2023-04-29T00:14:16;24.10;99.90
41435;DHT22;27177;22.262;114.192;2023-04-29T00:16:42;24.20;99.90
41435;DHT22;27177;22.262;114.192;2023-04-29T00:19:09;24.30;99.90
41435;DHT22;27177;22.262;114.192;2023-04-29T00:21:36;24.20;99.90
41435;DHT22;27177;22.262;114.192;2023-04-29T00:24:02;24.30;99.90
41435;DHT22;27177;22.262;114.192;2023-04-29T00:26:28;24.40;99.90
41435;DHT22;27177;22.262;114.192;2023-04-29T00:28:54;24.50;99.90
41435;DHT22;27177;22.262;114.192;2023-04-29T00:31:21;24.50;99.90
41435;DHT22;27177;22.262;114.192;2023-04-29T00:33:47;24.60;99.90
41435;DHT22;27177;22.262;114.192;2023-04-29T00:36:13;24.80;99.90
41435;DHT22;27177;22.262;114.192;2023-04-29T00:38:39;24.90;99.90
41435;DHT22;27177;22.262;114.192;2023-04-29T00:41:06;25.00;99.90
41435;DHT22;27177;22.262;114.192;2023-04-29T00:43:32;25.10;99.90
41435;DHT22;27177;22.262;114.192;2023-04-29T00:45:59;25.20;99.90
41435;DHT22;27177;22.262;114.192;2023-04-29T00:48:25;25.30;99.90
41435;DHT22;27177;22.262;114.192;2023-04-29T00:50:52;25.30;99.90
41435;DHT22;27177;22.262;114.192;2023-04-29T00:53:18;25.40;99.90
41435;DHT22;27177;22.262;114.192;2023-04-29T00:55:45;25.50;99.90
41435;DHT22;27177;22.262;114.192;2023-04-29T00:58:12;25.60;99.90
41435;DHT22;27177;22.262;114.192;2023-04-29T01:00:39;25.70;99.90
41435;DHT22;27177;22.262;114.192;2023-04-29T01:03:06;25.70;99.90
41435;DHT22;27177;22.262;114.192;2023-04-29T01:05:34;25.80;99.90
41435;DHT22;27177;22.262;114.192;2023-04-29T01:08:09;25.90;99.90
41435;DHT22;27177;22.262;114.192;2023-04-29T01:10:43;25.90;99.90
41435;DHT22;27177;22.262;114.192;2023-04-29T01:13:57;25.90;99.90
41435;DHT22;27177;22.262;114.192;2023-04-29T01:16:03;25.90;99.90
41435;DHT22;27177;22.262;114.192;2023-04-29T01:20:59;25.80;99.90
41435;DHT22;27177;22.262;114.192;2023-04-29T01:23:26;25.80;99.90
41435;DHT22;27177;22.262;114.192;2023-04-29T01:25:53;25.70;99.90
41435;DHT22;27177;22.262;114.192;2023-04-29T01:30:56;25.40;99.90
41435;DHT22;27177;22.262;114.192;2023-04-29T01:33:32;25.30;99.90
41435;DHT22;27177;22.262;114.192;2023-04-29T01:38:35;25.30;99.90
41435;DHT22;27177;22.262;114.192;2023-04-29T01:43:55;25.30;99.90
41435;DHT22;27177;22.262;114.192;2023-04-29T01:46:21;25.30;99.90
41435;DHT22;27177;22.262;114.192;2023-04-29T01:48:48;25.40;99.90
41435;DHT22;27177;22.262;114.192;2023-04-29T01:51:17;25.40;99.90
41435;DHT22;27177;22.262;114.192;2023-04-29T01:53:43;25.40;99.90
41435;DHT22;27177;22.262;114.192;2023-04-29T01:56:09;25.40;99.90
41435;DHT22;27177;22.262;114.192;2023-04-29T01:58:36;25.60;99.90
41435;DHT22;27177;22.262;114.192;2023-04-29T02:01:02;25.50;99.90
41435;DHT22;27177;22.262;114.192;2023-04-29T02:03:28;25.60;99.90
41435;DHT22;27177;22.262;114.192;2023-04-29T02:05:55;25.60;99.90
41435;DHT22;27177;22.262;114.192;2023-04-29T02:08:22;25.60;99.90
41435;DHT22;27177;22.262;114.192;2023-04-29T02:10:52;25.50;99.90
41435;DHT22;27177;22.262;114.192;2023-04-29T02:13:19;25.50;99.90
41435;DHT22;27177;22.262;114.192;2023-04-29T02:15:45;25.50;99.90
41435;DHT22;27177;22.262;114.192;2023-04-29T02:18:11;25.40;99.90
41435;DHT22;27177;22.262;114.192;2023-04-29T02:20:38;25.40;99.90
41435;DHT22;27177;22.262;114.192;2023-04-29T02:23:04;25.40;99.90
41435;DHT22;27177;22.262;114.192;2023-04-29T02:25:30;25.40;99.90
41435;DHT22;27177;22.262;114.192;2023-04-29T02:27:57;25.40;99.90
41435;DHT22;27177;22.262;114.192;2023-04-29T02:30:23;25.30;99.90
41435;DHT22;27177;22.262;114.192;2023-04-29T02:32:49;25.30;99.90
41435;DHT22;27177;22.262;114.192;2023-04-29T02:35:15;25.40;99.90
41435;DHT22;27177;22.262;114.192;2023-04-29T02:37:42;25.40;99.90
41435;DHT22;27177;22.262;114.192;2023-04-29T02:40:09;25.40;99.90
41435;DHT22;27177;22.262;114.192;2023-04-29T02:42:35;25.50;99.90
41435;DHT22;27177;22.262;114.192;2023-04-29T02:45:02;25.60;99.90
41435;DHT22;27177;22.262;114.192;2023-04-29T02:47:29;25.60;99.90
41435;DHT22;27177;22.262;114.192;2023-04-29T02:49:55;25.70;99.90
41435;DHT22;27177;22.262;114.192;2023-04-29T02:52:21;25.70;99.90
41435;DHT22;27177;22.262;114.192;2023-04-29T02:54:47;25.80;99.90
41435;DHT22;27177;22.262;114.192;2023-04-29T02:57:14;25.90;99.90
41435;DHT22;27177;22.262;114.192;2023-04-29T02:59:40;25.90;99.90
41435;DHT22;27177;22.262;114.192;2023-04-29T03:02:06;26.00;99.90
41435;DHT22;27177;22.262;114.192;2023-04-29T03:04:33;25.90;99.90
41435;DHT22;27177;22.262;114.192;2023-04-29T03:06:59;25.90;99.90
41435;DHT22;27177;22.262;114.192;2023-04-29T03:09:25;26.00;99.90
41435;DHT22;27177;22.262;114.192;2023-04-29T03:11:52;25.90;99.90
41435;DHT22;27177;22.262;114.192;2023-04-29T03:14:18;26.00;99.90
41435;DHT22;27177;22.262;114.192;2023-04-29T03:16:44;26.00;99.90
41435;DHT22;27177;22.262;114.192;2023-04-29T03:19:11;26.00;99.90
41435;DHT22;27177;22.262;114.192;2023-04-29T03:21:37;26.00;99.90
41435;DHT22;27177;22.262;114.192;2023-04-29T03:24:04;26.00;99.90
41435;DHT22;27177;22.262;114.192;2023-04-29T03:26:30;26.10;99.90
41435;DHT22;27177;22.262;114.192;2023-04-29T03:28:56;26.10;99.90
41435;DHT22;27177;22.262;114.192;2023-04-29T03:31:23;26.20;99.90
41435;DHT22;27177;22.262;114.192;2023-04-29T03:33:51;26.20;99.90
41435;DHT22;27177;22.262;114.192;2023-04-29T03:36:18;26.30;99.90
41435;DHT22;27177;22.262;114.192;2023-04-29T03:38:44;26.20;99.90
41435;DHT22;27177;22.262;114.192;2023-04-29T03:41:10;26.30;99.90
41435;DHT22;27177;22.262;114.192;2023-04-29T03:43:37;26.30;99.90
41435;DHT22;27177;22.262;114.192;2023-04-29T03:46:03;26.30;99.90
41435;DHT22;27177;22.262;114.192;2023-04-29T03:48:29;26.40;99.90
41435;DHT22;27177;22.262;114.192;2023-04-29T03:50:55;26.50;99.90
41435;DHT22;27177;22.262;114.192;2023-04-29T03:53:22;26.50;99.90
41435;DHT22;27177;22.262;114.192;2023-04-29T03:55:49;26.60;99.90
41435;DHT22;27177;22.262;114.192;2023-04-29T03:58:16;26.60;99.90
41435;DHT22;27177;22.262;114.192;2023-04-29T04:00:42;26.70;99.90
41435;DHT22;27177;22.262;114.192;2023-04-29T04:03:08;26.70;99.90
41435;DHT22;27177;22.262;114.192;2023-04-29T04:05:34;26.80;99.90
41435;DHT22;27177;22.262;114.192;2023-04-29T04:08:01;26.90;99.90
41435;DHT22;27177;22.262;114.192;2023-04-29T04:10:27;27.00;99.90
41435;DHT22;27177;22.262;114.192;2023-04-29T04:12:53;27.10;99.90
41435;DHT22;27177;22.262;114.192;2023-04-29T04:15:19;27.30;99.90
41435;DHT22;27177;22.262;114.192;2023-04-29T04:17:47;27.30;99.90
41435;DHT22;27177;22.262;114.192;2023-04-29T04:20:13;27.30;99.90
41435;DHT22;27177;22.262;114.192;2023-04-29T04:22:40;27.30;99.90
41435;DHT22;27177;22.262;114.192;2023-04-29T04:25:06;27.20;99.90
41435;DHT22;27177;22.262;114.192;2023-04-29T04:27:33;27.10;99.90
41435;DHT22;27177;22.262;114.192;2023-04-29T04:29:59;27.10;99.90
41435;DHT22;27177;22.262;114.192;2023-04-29T04:32:25;27.00;99.90
41435;DHT22;27177;22.262;114.192;2023-04-29T04:34:51;26.70;99.90
41435;DHT22;27177;22.262;114.192;2023-04-29T04:37:18;26.50;99.90
41435;DHT22;27177;22.262;114.192;2023-04-29T04:39:44;26.50;99.90
41435;DHT22;27177;22.262;114.192;2023-04-29T04:42:10;26.50;99.90
41435;DHT22;27177;22.262;114.192;2023-04-29T04:44:37;26.50;99.90
41435;DHT22;27177;22.262;114.192;2023-04-29T04:47:03;26.60;99.90
41435;DHT22;27177;22.262;114.192;2023-04-29T04:49:30;26.60;99.90
41435;DHT22;27177;22.262;114.192;2023-04-29T04:51:57;26.60;99.90
41435;DHT22;27177;22.262;114.192;2023-04-29T04:54:23;26.60;99.90
41435;DHT22;27177;22.262;114.192;2023-04-29T04:56:49;26.60;99.90
41435;DHT22;27177;22.262;114.192;2023-04-29T04:59:16;26.50;99.90
41435;DHT22;27177;22.262;114.192;2023-04-29T05:01:43;26.50;99.90
41435;DHT22;27177;22.262;114.192;2023-04-29T05:04:09;26.40;99.90
41435;DHT22;27177;22.262;114.192;2023-04-29T05:06:35;26.40;99.90
41435;DHT22;27177;22.262;114.192;2023-04-29T05:09:02;26.30;99.90
41435;DHT22;27177;22.262;114.192;2023-04-29T05:11:28;26.30;99.90
41435;DHT22;27177;22.262;114.192;2023-04-29T05:13:54;26.20;99.90
41435;DHT22;27177;22.262;114.192;2023-04-29T05:16:21;26.20;99.90
41435;DHT22;27177;22.262;114.192;2023-04-29T05:18:47;26.10;99.90
41435;DHT22;27177;22.262;114.192;2023-04-29T05:21:13;26.10;99.90
41435;DHT22;27177;22.262;114.192;2023-04-29T05:23:40;26.00;99.90
41435;DHT22;27177;22.262;114.192;2023-04-29T05:26:06;25.90;99.90
41435;DHT22;27177;22.262;114.192;2023-04-29T05:28:32;25.80;99.90
41435;DHT22;27177;22.262;114.192;2023-04-29T05:30:59;25.70;99.90
41435;DHT22;27177;22.262;114.192;2023-04-29T05:33:25;25.70;99.90
41435;DHT22;27177;22.262;114.192;2023-04-29T05:35:52;25.60;99.90
41435;DHT22;27177;22.262;114.192;2023-04-29T05:38:18;25.60;99.90
41435;DHT22;27177;22.262;114.192;2023-04-29T05:40:44;25.60;99.90
41435;DHT22;27177;22.262;114.192;2023-04-29T05:43:10;25.50;99.90
41435;DHT22;27177;22.262;114.192;2023-04-29T05:45:37;25.50;99.90
41435;DHT22;27177;22.262;114.192;2023-04-29T05:48:03;25.50;99.90
41435;DHT22;27177;22.262;114.192;2023-04-29T05:50:30;25.50;99.90
41435;DHT22;27177;22.262;114.192;2023-04-29T05:52:56;25.50;99.90
41435;DHT22;27177;22.262;114.192;2023-04-29T05:55:22;25.50;99.90
41435;DHT22;27177;22.262;114.192;2023-04-29T05:57:48;25.50;99.90
41435;DHT22;27177;22.262;114.192;2023-04-29T06:00:15;25.60;99.90
41435;DHT22;27177;22.262;114.192;2023-04-29T06:02:41;25.60;99.90
41435;DHT22;27177;22.262;114.192;2023-04-29T06:05:07;25.70;99.90
41435;DHT22;27177;22.262;114.192;2023-04-29T06:07:34;25.70;99.90
41435;DHT22;27177;22.262;114.192;2023-04-29T06:10:01;25.80;99.90
41435;DHT22;27177;22.262;114.192;2023-04-29T06:12:27;25.80;99.90
41435;DHT22;27177;22.262;114.192;2023-04-29T06:14:54;25.90;99.90
41435;DHT22;27177;22.262;114.192;2023-04-29T06:17:20;25.80;99.90
41435;DHT22;27177;22.262;114.192;2023-04-29T06:19:47;25.90;99.90
41435;DHT22;27177;22.262;114.192;2023-04-29T06:22:13;25.90;99.90
41435;DHT22;27177;22.262;114.192;2023-04-29T06:24:39;26.00;99.90
41435;DHT22;27177;22.262;114.192;2023-04-29T06:27:05;26.00;99.90
41435;DHT22;27177;22.262;114.192;2023-04-29T06:29:32;26.10;99.90
41435;DHT22;27177;22.262;114.192;2023-04-29T06:31:58;26.20;99.90
41435;DHT22;27177;22.262;114.192;2023-04-29T06:34:24;26.20;99.90
41435;DHT22;27177;22.262;114.192;2023-04-29T06:36:51;26.20;99.90
41435;DHT22;27177;22.262;114.192;2023-04-29T06:39:17;26.30;99.90
41435;DHT22;27177;22.262;114.192;2023-04-29T06:41:43;26.50;99.90
41435;DHT22;27177;22.262;114.192;2023-04-29T06:44:09;26.70;99.90
41435;DHT22;27177;22.262;114.192;2023-04-29T06:46:36;27.00;99.90
41435;DHT22;27177;22.262;114.192;2023-04-29T06:49:03;27.10;99.90
41435;DHT22;27177;22.262;114.192;2023-04-29T06:51:31;27.30;99.90
41435;DHT22;27177;22.262;114.192;2023-04-29T06:53:57;27.40;99.90
41435;DHT22;27177;22.262;114.192;2023-04-29T06:56:23;27.50;99.90
41435;DHT22;27177;22.262;114.192;2023-04-29T06:58:50;27.70;99.90
41435;DHT22;27177;22.262;114.192;2023-04-29T07:01:16;28.00;99.90
41435;DHT22;27177;22.262;114.192;2023-04-29T07:03:42;28.20;99.90
41435;DHT22;27177;22.262;114.192;2023-04-29T07:06:09;28.40;99.90
41435;DHT22;27177;22.262;114.192;2023-04-29T07:08:35;28.30;99.90
41435;DHT22;27177;22.262;114.192;2023-04-29T07:11:01;28.30;99.90
41435;DHT22;27177;22.262;114.192;2023-04-29T07:13:28;28.40;99.90
41435;DHT22;27177;22.262;114.192;2023-04-29T07:15:54;28.40;99.90
41435;DHT22;27177;22.262;114.192;2023-04-29T07:18:21;28.30;99.90
41435;DHT22;27177;22.262;114.192;2023-04-29T07:20:47;28.30;99.90
41435;DHT22;27177;22.262;114.192;2023-04-29T07:23:15;28.30;99.90
41435;DHT22;27177;22.262;114.192;2023-04-29T07:25:41;28.10;99.90
41435;DHT22;27177;22.262;114.192;2023-04-29T07:28:08;28.10;99.90
41435;DHT22;27177;22.262;114.192;2023-04-29T07:30:34;28.10;99.90
41435;DHT22;27177;22.262;114.192;2023-04-29T07:33:00;28.00;99.90
41435;DHT22;27177;22.262;114.192;2023-04-29T07:35:28;28.10;99.90
41435;DHT22;27177;22.262;114.192;2023-04-29T07:37:55;28.20;99.90
41435;DHT22;27177;22.262;114.192;2023-04-29T07:40:21;28.20;99.90
41435;DHT22;27177;22.262;114.192;2023-04-29T07:42:47;28.20;99.90
41435;DHT22;27177;22.262;114.192;2023-04-29T07:45:14;28.40;99.90
41435;DHT22;27177;22.262;114.192;2023-04-29T07:47:40;28.40;99.90
41435;DHT22;27177;22.262;114.192;2023-04-29T07:50:06;28.50;99.90
41435;DHT22;27177;22.262;114.192;2023-04-29T07:52:33;28.40;99.90
41435;DHT22;27177;22.262;114.192;2023-04-29T07:54:59;28.40;99.90
41435;DHT22;27177;22.262;114.192;2023-04-29T07:57:25;28.30;99.90
41435;DHT22;27177;22.262;114.192;2023-04-29T07:59:52;28.30;99.90
41435;DHT22;27177;22.262;114.192;2023-04-29T08:02:18;28.20;99.90
41435;DHT22;27177;22.262;114.192;2023-04-29T08:04:45;28.10;99.90
41435;DHT22;27177;22.262;114.192;2023-04-29T08:07:11;27.90;99.90
41435;DHT22;27177;22.262;114.192;2023-04-29T08:09:37;27.90;99.90
41435;DHT22;27177;22.262;114.192;2023-04-29T08:12:04;27.90;99.90
41435;DHT22;27177;22.262;114.192;2023-04-29T08:14:30;27.80;99.90
41435;DHT22;27177;22.262;114.192;2023-04-29T08:16:56;27.70;99.90
41435;DHT22;27177;22.262;114.192;2023-04-29T08:19:22;27.60;99.90
41435;DHT22;27177;22.262;114.192;2023-04-29T08:21:49;27.40;99.90
41435;DHT22;27177;22.262;114.192;2023-04-29T08:24:16;27.30;99.90
41435;DHT22;27177;22.262;114.192;2023-04-29T08:26:42;27.10;99.90
41435;DHT22;27177;22.262;114.192;2023-04-29T08:29:09;26.90;99.90
41435;DHT22;27177;22.262;114.192;2023-04-29T08:31:35;26.70;99.90
41435;DHT22;27177;22.262;114.192;2023-04-29T08:34:01;26.50;99.90
41435;DHT22;27177;22.262;114.192;2023-04-29T08:36:28;26.40;99.90
41435;DHT22;27177;22.262;114.192;2023-04-29T08:38:54;26.20;99.90
41435;DHT22;27177;22.262;114.192;2023-04-29T08:41:21;26.20;99.90
41435;DHT22;27177;22.262;114.192;2023-04-29T08:43:47;26.00;99.90
41435;DHT22;27177;22.262;114.192;2023-04-29T08:46:14;25.90;99.90
41435;DHT22;27177;22.262;114.192;2023-04-29T08:48:40;25.80;99.90
41435;DHT22;27177;22.262;114.192;2023-04-29T08:51:07;25.70;99.90
41435;DHT22;27177;22.262;114.192;2023-04-29T08:53:36;25.60;99.90
41435;DHT22;27177;22.262;114.192;2023-04-29T08:56:06;25.50;99.90
41435;DHT22;27177;22.262;114.192;2023-04-29T08:58:35;25.40;99.90
41435;DHT22;27177;22.262;114.192;2023-04-29T09:01:01;25.40;99.90
41435;DHT22;27177;22.262;114.192;2023-04-29T09:03:49;25.30;99.90
41435;DHT22;27177;22.262;114.192;2023-04-29T09:06:17;25.20;99.90
41435;DHT22;27177;22.262;114.192;2023-04-29T09:08:44;25.20;99.90
41435;DHT22;27177;22.262;114.192;2023-04-29T09:11:10;25.10;99.90
41435;DHT22;27177;22.262;114.192;2023-04-29T09:13:37;25.10;99.90
41435;DHT22;27177;22.262;114.192;2023-04-29T09:16:04;25.00;99.90
41435;DHT22;27177;22.262;114.192;2023-04-29T09:18:46;25.00;99.90
41435;DHT22;27177;22.262;114.192;2023-04-29T09:23:41;24.90;99.90
41435;DHT22;27177;22.262;114.192;2023-04-29T09:26:08;24.90;99.90
41435;DHT22;27177;22.262;114.192;2023-04-29T09:28:34;24.90;99.90
41435;DHT22;27177;22.262;114.192;2023-04-29T09:31:01;24.90;99.90
41435;DHT22;27177;22.262;114.192;2023-04-29T09:33:31;24.90;99.90
41435;DHT22;27177;22.262;114.192;2023-04-29T09:35:57;24.90;99.90
41435;DHT22;27177;22.262;114.192;2023-04-29T09:38:25;24.90;99.90
41435;DHT22;27177;22.262;114.192;2023-04-29T09:40:51;24.90;99.90
41435;DHT22;27177;22.262;114.192;2023-04-29T09:43:18;24.80;99.90
41435;DHT22;27177;22.262;114.192;2023-04-29T09:45:46;24.80;99.90
41435;DHT22;27177;22.262;114.192;2023-04-29T09:48:13;24.80;99.90
41435;DHT22;27177;22.262;114.192;2023-04-29T09:50:41;24.80;99.90
41435;DHT22;27177;22.262;114.192;2023-04-29T09:53:09;24.70;99.90
41435;DHT22;27177;22.262;114.192;2023-04-29T09:55:36;24.70;99.90
41435;DHT22;27177;22.262;114.192;2023-04-29T09:58:02;24.70;99.90
41435;DHT22;27177;22.262;114.192;2023-04-29T10:00:30;24.70;99.90
41435;DHT22;27177;22.262;114.192;2023-04-29T10:02:58;24.60;99.90
41435;DHT22;27177;22.262;114.192;2023-04-29T10:05:29;24.60;99.90
41435;DHT22;27177;22.262;114.192;2023-04-29T10:07:55;24.60;99.90
41435;DHT22;27177;22.262;114.192;2023-04-29T10:10:22;24.60;99.90
41435;DHT22;27177;22.262;114.192;2023-04-29T10:12:49;24.60;99.90
41435;DHT22;27177;22.262;114.192;2023-04-29T10:15:25;24.60;99.90
41435;DHT22;27177;22.262;114.192;2023-04-29T10:18:02;24.60;99.90
41435;DHT22;27177;22.262;114.192;2023-04-29T10:20:30;24.60;99.90
41435;DHT22;27177;22.262;114.192;2023-04-29T10:22:56;24.60;99.90
41435;DHT22;27177;22.262;114.192;2023-04-29T10:25:24;24.70;99.90
41435;DHT22;27177;22.262;114.192;2023-04-29T10:27:52;24.70;99.90
41435;DHT22;27177;22.262;114.192;2023-04-29T10:30:20;24.70;99.90
41435;DHT22;27177;22.262;114.192;2023-04-29T10:32:48;24.60;99.90
41435;DHT22;27177;22.262;114.192;2023-04-29T10:35:15;24.70;99.90
41435;DHT22;27177;22.262;114.192;2023-04-29T10:37:44;24.60;99.90
41435;DHT22;27177;22.262;114.192;2023-04-29T10:40:14;24.60;99.90
41435;DHT22;27177;22.262;114.192;2023-04-29T10:45:22;24.60;99.90
41435;DHT22;27177;22.262;114.192;2023-04-29T10:50:27;24.60;99.90
41435;DHT22;27177;22.262;114.192;2023-04-29T10:52:54;24.60;99.90
41435;DHT22;27177;22.262;114.192;2023-04-29T10:55:22;24.60;99.90
41435;DHT22;27177;22.262;114.192;2023-04-29T10:57:48;24.60;99.90
41435;DHT22;27177;22.262;114.192;2023-04-29T11:00:35;24.60;99.90
41435;DHT22;27177;22.262;114.192;2023-04-29T11:03:04;24.60;99.90
41435;DHT22;27177;22.262;114.192;2023-04-29T11:05:32;24.50;99.90
41435;DHT22;27177;22.262;114.192;2023-04-29T11:08:09;24.50;99.90
41435;DHT22;27177;22.262;114.192;2023-04-29T11:10:39;24.50;99.90
41435;DHT22;27177;22.262;114.192;2023-04-29T11:13:25;24.50;99.90
41435;DHT22;27177;22.262;114.192;2023-04-29T11:15:52;24.50;99.90
41435;DHT22;27177;22.262;114.192;2023-04-29T11:18:19;24.50;99.90
41435;DHT22;27177;22.262;114.192;2023-04-29T11:21:19;24.40;99.90
41435;DHT22;27177;22.262;114.192;2023-04-29T11:23:38;24.40;99.90
41435;DHT22;27177;22.262;114.192;2023-04-29T11:26:09;24.40;99.90
41435;DHT22;27177;22.262;114.192;2023-04-29T11:28:36;24.40;99.90
41435;DHT22;27177;22.262;114.192;2023-04-29T11:31:03;24.40;99.90
41435;DHT22;27177;22.262;114.192;2023-04-29T11:33:30;24.40;99.90
41435;DHT22;27177;22.262;114.192;2023-04-29T11:35:57;24.40;99.90
41435;DHT22;27177;22.262;114.192;2023-04-29T11:38:27;24.40;99.90
41435;DHT22;27177;22.262;114.192;2023-04-29T11:40:53;24.40;99.90
41435;DHT22;27177;22.262;114.192;2023-04-29T11:43:21;24.40;99.90
41435;DHT22;27177;22.262;114.192;2023-04-29T11:45:48;24.40;99.90
41435;DHT22;27177;22.262;114.192;2023-04-29T11:50:45;24.40;99.90
41435;DHT22;27177;22.262;114.192;2023-04-29T11:53:11;24.40;99.90
41435;DHT22;27177;22.262;114.192;2023-04-29T11:55:38;24.40;99.90
41435;DHT22;27177;22.262;114.192;2023-04-29T11:58:06;24.30;99.90
41435;DHT22;27177;22.262;114.192;2023-04-29T12:00:33;24.40;99.90
41435;DHT22;27177;22.262;114.192;2023-04-29T12:02:59;24.40;99.90
41435;DHT22;27177;22.262;114.192;2023-04-29T12:05:26;24.30;99.90
41435;DHT22;27177;22.262;114.192;2023-04-29T12:07:55;24.30;99.90
41435;DHT22;27177;22.262;114.192;2023-04-29T12:10:21;24.30;99.90
41435;DHT22;27177;22.262;114.192;2023-04-29T12:12:47;24.30;99.90
41435;DHT22;27177;22.262;114.192;2023-04-29T12:15:14;24.30;99.90
41435;DHT22;27177;22.262;114.192;2023-04-29T12:17:41;24.30;99.90
41435;DHT22;27177;22.262;114.192;2023-04-29T12:20:07;24.30;99.90
41435;DHT22;27177;22.262;114.192;2023-04-29T12:22:35;24.20;99.90
41435;DHT22;27177;22.262;114.192;2023-04-29T12:25:05;24.20;99.90
41435;DHT22;27177;22.262;114.192;2023-04-29T12:27:34;24.20;99.90
41435;DHT22;27177;22.262;114.192;2023-04-29T12:30:01;24.20;99.90
41435;DHT22;27177;22.262;114.192;2023-04-29T12:32:27;24.10;99.90
41435;DHT22;27177;22.262;114.192;2023-04-29T12:34:53;24.10;99.90
41435;DHT22;27177;22.262;114.192;2023-04-29T12:37:20;24.10;99.90
41435;DHT22;27177;22.262;114.192;2023-04-29T12:39:48;24.10;99.90
41435;DHT22;27177;22.262;114.192;2023-04-29T12:42:15;24.10;99.90
41435;DHT22;27177;22.262;114.192;2023-04-29T12:44:44;24.10;99.90
41435;DHT22;27177;22.262;114.192;2023-04-29T12:47:12;24.00;99.90
41435;DHT22;27177;22.262;114.192;2023-04-29T12:49:46;24.00;99.90
41435;DHT22;27177;22.262;114.192;2023-04-29T12:52:13;24.00;99.90
41435;DHT22;27177;22.262;114.192;2023-04-29T12:54:40;23.90;99.90
41435;DHT22;27177;22.262;114.192;2023-04-29T12:57:10;23.90;99.90
41435;DHT22;27177;22.262;114.192;2023-04-29T12:59:36;23.90;99.90
41435;DHT22;27177;22.262;114.192;2023-04-29T13:02:03;23.90;99.90
41435;DHT22;27177;22.262;114.192;2023-04-29T13:04:29;23.80;99.90
41435;DHT22;27177;22.262;114.192;2023-04-29T13:06:55;23.80;99.90
41435;DHT22;27177;22.262;114.192;2023-04-29T13:09:28;23.80;99.90
41435;DHT22;27177;22.262;114.192;2023-04-29T13:11:55;23.80;99.90
41435;DHT22;27177;22.262;114.192;2023-04-29T13:14:22;23.80;99.90
41435;DHT22;27177;22.262;114.192;2023-04-29T13:16:48;23.70;99.90
41435;DHT22;27177;22.262;114.192;2023-04-29T13:19:15;23.70;99.90
41435;DHT22;27177;22.262;114.192;2023-04-29T13:21:41;23.70;99.90
41435;DHT22;27177;22.262;114.192;2023-04-29T13:24:07;23.70;99.90
41435;DHT22;27177;22.262;114.192;2023-04-29T13:26:35;23.70;99.90
41435;DHT22;27177;22.262;114.192;2023-04-29T13:29:02;23.70;99.90
41435;DHT22;27177;22.262;114.192;2023-04-29T13:31:29;23.70;99.90
41435;DHT22;27177;22.262;114.192;2023-04-29T13:33:55;23.70;99.90
41435;DHT22;27177;22.262;114.192;2023-04-29T13:36:21;23.60;99.90
41435;DHT22;27177;22.262;114.192;2023-04-29T13:38:48;23.60;99.90
41435;DHT22;27177;22.262;114.192;2023-04-29T13:41:14;23.60;99.90
41435;DHT22;27177;22.262;114.192;2023-04-29T13:43:40;23.60;99.90
41435;DHT22;27177;22.262;114.192;2023-04-29T13:46:07;23.60;99.90
41435;DHT22;27177;22.262;114.192;2023-04-29T13:48:33;23.60;99.90
41435;DHT22;27177;22.262;114.192;2023-04-29T13:51:00;23.50;99.90
41435;DHT22;27177;22.262;114.192;2023-04-29T13:53:26;23.50;99.90
41435;DHT22;27177;22.262;114.192;2023-04-29T13:55:52;23.50;99.90
41435;DHT22;27177;22.262;114.192;2023-04-29T13:58:18;23.40;99.90
41435;DHT22;27177;22.262;114.192;2023-04-29T14:00:45;23.40;99.90
41435;DHT22;27177;22.262;114.192;2023-04-29T14:03:12;23.40;99.90
41435;DHT22;27177;22.262;114.192;2023-04-29T14:05:38;23.40;99.90
41435;DHT22;27177;22.262;114.192;2023-04-29T14:08:06;23.40;99.90
41435;DHT22;27177;22.262;114.192;2023-04-29T14:10:32;23.40;99.90
41435;DHT22;27177;22.262;114.192;2023-04-29T14:12:58;23.40;99.90
41435;DHT22;27177;22.262;114.192;2023-04-29T14:15:26;23.30;99.90
41435;DHT22;27177;22.262;114.192;2023-04-29T14:17:54;23.40;99.90
41435;DHT22;27177;22.262;114.192;2023-04-29T14:20:21;23.40;99.90
41435;DHT22;27177;22.262;114.192;2023-04-29T14:22:47;23.40;99.90
41435;DHT22;27177;22.262;114.192;2023-04-29T14:25:14;23.30;99.90
41435;DHT22;27177;22.262;114.192;2023-04-29T14:27:40;23.40;99.90
41435;DHT22;27177;22.262;114.192;2023-04-29T14:30:06;23.40;99.90
41435;DHT22;27177;22.262;114.192;2023-04-29T14:32:33;23.40;99.90
41435;DHT22;27177;22.262;114.192;2023-04-29T14:34:59;23.40;99.90
41435;DHT22;27177;22.262;114.192;2023-04-29T14:37:26;23.40;99.90
41435;DHT22;27177;22.262;114.192;2023-04-29T14:39:52;23.40;99.90
41435;DHT22;27177;22.262;114.192;2023-04-29T14:42:18;23.40;99.90
41435;DHT22;27177;22.262;114.192;2023-04-29T14:44:45;23.40;99.90
41435;DHT22;27177;22.262;114.192;2023-04-29T14:47:11;23.30;99.90
41435;DHT22;27177;22.262;114.192;2023-04-29T14:49:37;23.30;99.90
41435;DHT22;27177;22.262;114.192;2023-04-29T14:52:04;23.30;99.90
41435;DHT22;27177;22.262;114.192;2023-04-29T14:54:30;23.30;99.90
41435;DHT22;27177;22.262;114.192;2023-04-29T14:56:56;23.30;99.90
41435;DHT22;27177;22.262;114.192;2023-04-29T14:59:23;23.30;99.90
41435;DHT22;27177;22.262;114.192;2023-04-29T15:01:49;23.40;99.90
41435;DHT22;27177;22.262;114.192;2023-04-29T15:04:15;23.50;99.90
41435;DHT22;27177;22.262;114.192;2023-04-29T15:06:42;23.50;99.90
41435;DHT22;27177;22.262;114.192;2023-04-29T15:09:08;23.60;99.90
41435;DHT22;27177;22.262;114.192;2023-04-29T15:11:34;23.60;99.90
41435;DHT22;27177;22.262;114.192;2023-04-29T15:14:00;23.60;99.90
41435;DHT22;27177;22.262;114.192;2023-04-29T15:16:27;23.60;99.90
41435;DHT22;27177;22.262;114.192;2023-04-29T15:18:54;23.60;99.90
41435;DHT22;27177;22.262;114.192;2023-04-29T15:21:20;23.60;99.90
41435;DHT22;27177;22.262;114.192;2023-04-29T15:23:46;23.50;99.90